sensor_id;sensor_type;location;lat;lon;timestamp;pressure;altitude;pressure_sealevel;temperature;humidity
30730;BME280;17476;48.458;7.928;2022-09-09T00:04:05;99581.47;;;19.01;70.06
30730;BME280;17476;48.458;7.928;2022-09-09T00:06:50;99586.53;;;19.03;70.22
30730;BME280;17476;48.458;7.928;2022-09-09T00:09:24;99592.44;;;19.05;70.05
30730;BME280;17476;48.458;7.928;2022-09-09T00:12:02;99590.59;;;19.05;70.51
30730;BME280;17476;48.458;7.928;2022-09-09T00:14:48;99599.91;;;19.08;70.59
30730;BME280;17476;48.458;7.928;2022-09-09T00:23:35;99612.94;;;19.09;71.68
30730;BME280;17476;48.458;7.928;2022-09-09T00:31:27;99617.47;;;18.79;72.31
30730;BME280;17476;48.458;7.928;2022-09-09T00:34:05;99626.47;;;18.78;74.57
30730;BME280;17476;48.458;7.928;2022-09-09T00:36:37;99625.28;;;18.74;73.67
30730;BME280;17476;48.458;7.928;2022-09-09T00:39:04;99624.25;;;18.75;74.74
30730;BME280;17476;48.458;7.928;2022-09-09T00:44:37;99624.84;;;18.77;73.58
30730;BME280;17476;48.458;7.928;2022-09-09T00:50:03;99618.13;;;18.74;74.42
30730;BME280;17476;48.458;7.928;2022-09-09T00:57:35;99626.22;;;18.61;72.61
30730;BME280;17476;48.458;7.928;2022-09-09T01:00:24;99624.91;;;18.52;73.02
30730;BME280;17476;48.458;7.928;2022-09-09T01:03:34;99624.44;;;18.43;72.41
30730;BME280;17476;48.458;7.928;2022-09-09T01:06:33;99626.47;;;18.41;73.88
30730;BME280;17476;48.458;7.928;2022-09-09T01:09:14;99613.84;;;18.43;73.61
30730;BME280;17476;48.458;7.928;2022-09-09T01:17:21;99611.91;;;18.50;71.89
30730;BME280;17476;48.458;7.928;2022-09-09T01:28:48;99603.28;;;18.55;72.79
30730;BME280;17476;48.458;7.928;2022-09-09T01:31:39;99605.19;;;18.48;72.74
30730;BME280;17476;48.458;7.928;2022-09-09T01:34:14;99601.31;;;18.50;71.48
30730;BME280;17476;48.458;7.928;2022-09-09T01:39:18;99584.25;;;18.46;73.02
30730;BME280;17476;48.458;7.928;2022-09-09T01:41:45;99584.63;;;18.50;71.24
30730;BME280;17476;48.458;7.928;2022-09-09T01:44:11;99587.69;;;18.47;72.17
30730;BME280;17476;48.458;7.928;2022-09-09T01:46:37;99595.66;;;18.47;72.36
30730;BME280;17476;48.458;7.928;2022-09-09T01:49:06;99587.28;;;18.50;72.92
30730;BME280;17476;48.458;7.928;2022-09-09T01:51:34;99587.94;;;18.45;72.17
30730;BME280;17476;48.458;7.928;2022-09-09T01:54:01;99581.03;;;18.44;71.73
30730;BME280;17476;48.458;7.928;2022-09-09T02:05:41;99575.00;;;18.37;72.24
30730;BME280;17476;48.458;7.928;2022-09-09T02:08:23;99573.97;;;18.38;71.95
30730;BME280;17476;48.458;7.928;2022-09-09T02:10:56;99567.28;;;18.36;72.20
30730;BME280;17476;48.458;7.928;2022-09-09T02:13:25;99579.34;;;18.32;72.03
30730;BME280;17476;48.458;7.928;2022-09-09T02:19:28;99588.47;;;18.17;73.35
30730;BME280;17476;48.458;7.928;2022-09-09T02:21:59;99582.47;;;18.10;73.26
30730;BME280;17476;48.458;7.928;2022-09-09T02:24:32;99579.19;;;18.08;72.87
30730;BME280;17476;48.458;7.928;2022-09-09T02:27:03;99576.28;;;17.98;72.15
30730;BME280;17476;48.458;7.928;2022-09-09T02:29:38;99577.38;;;17.90;73.56
30730;BME280;17476;48.458;7.928;2022-09-09T02:32:08;99573.13;;;17.89;74.96
30730;BME280;17476;48.458;7.928;2022-09-09T02:34:45;99574.16;;;17.88;72.88
30730;BME280;17476;48.458;7.928;2022-09-09T02:37:19;99583.97;;;17.81;74.24
30730;BME280;17476;48.458;7.928;2022-09-09T02:39:46;99587.66;;;17.80;73.03
30730;BME280;17476;48.458;7.928;2022-09-09T02:42:12;99590.28;;;17.80;73.89
30730;BME280;17476;48.458;7.928;2022-09-09T02:44:40;99587.66;;;17.80;74.44
30730;BME280;17476;48.458;7.928;2022-09-09T02:56:09;99585.97;;;17.86;74.13
30730;BME280;17476;48.458;7.928;2022-09-09T02:58:37;99591.47;;;17.84;73.79
30730;BME280;17476;48.458;7.928;2022-09-09T03:01:05;99584.34;;;17.85;73.35
30730;BME280;17476;48.458;7.928;2022-09-09T03:03:31;99576.34;;;17.91;74.62
30730;BME280;17476;48.458;7.928;2022-09-09T03:05:57;99564.72;;;17.92;73.60
30730;BME280;17476;48.458;7.928;2022-09-09T03:08:23;99569.00;;;17.93;73.70
30730;BME280;17476;48.458;7.928;2022-09-09T03:10:49;99566.56;;;17.92;72.27
30730;BME280;17476;48.458;7.928;2022-09-09T03:13:15;99559.34;;;17.81;71.75
30730;BME280;17476;48.458;7.928;2022-09-09T03:15:41;99564.88;;;17.79;72.56
30730;BME280;17476;48.458;7.928;2022-09-09T03:18:07;99574.28;;;17.75;73.47
30730;BME280;17476;48.458;7.928;2022-09-09T03:20:34;99565.53;;;17.74;73.88
30730;BME280;17476;48.458;7.928;2022-09-09T03:23:00;99559.00;;;17.77;73.56
30730;BME280;17476;48.458;7.928;2022-09-09T03:25:26;99565.31;;;17.76;74.19
30730;BME280;17476;48.458;7.928;2022-09-09T03:27:53;99571.44;;;17.77;73.59
30730;BME280;17476;48.458;7.928;2022-09-09T03:30:25;99566.94;;;17.77;73.31
30730;BME280;17476;48.458;7.928;2022-09-09T03:32:52;99565.91;;;17.78;74.23
30730;BME280;17476;48.458;7.928;2022-09-09T03:35:18;99563.31;;;17.71;74.64
30730;BME280;17476;48.458;7.928;2022-09-09T03:37:44;99569.91;;;17.62;74.85
30730;BME280;17476;48.458;7.928;2022-09-09T03:40:11;99567.84;;;17.64;75.27
30730;BME280;17476;48.458;7.928;2022-09-09T03:42:38;99569.31;;;17.60;75.57
30730;BME280;17476;48.458;7.928;2022-09-09T03:45:06;99567.31;;;17.56;76.15
30730;BME280;17476;48.458;7.928;2022-09-09T03:47:33;99569.81;;;17.51;76.55
30730;BME280;17476;48.458;7.928;2022-09-09T03:49:59;99566.78;;;17.47;76.68
30730;BME280;17476;48.458;7.928;2022-09-09T03:52:25;99563.50;;;17.52;77.29
30730;BME280;17476;48.458;7.928;2022-09-09T03:54:52;99569.16;;;17.55;76.37
30730;BME280;17476;48.458;7.928;2022-09-09T03:57:19;99571.13;;;17.60;76.40
30730;BME280;17476;48.458;7.928;2022-09-09T03:59:46;99565.84;;;17.60;75.93
30730;BME280;17476;48.458;7.928;2022-09-09T04:02:11;99564.22;;;17.59;75.94
30730;BME280;17476;48.458;7.928;2022-09-09T04:04:37;99561.81;;;17.57;76.43
30730;BME280;17476;48.458;7.928;2022-09-09T04:07:03;99564.22;;;17.59;76.29
30730;BME280;17476;48.458;7.928;2022-09-09T04:09:31;99569.16;;;17.55;76.16
30730;BME280;17476;48.458;7.928;2022-09-09T04:11:57;99574.66;;;17.54;76.48
30730;BME280;17476;48.458;7.928;2022-09-09T04:14:23;99570.38;;;17.53;76.91
30730;BME280;17476;48.458;7.928;2022-09-09T04:16:49;99566.94;;;17.52;77.18
30730;BME280;17476;48.458;7.928;2022-09-09T04:19:15;99574.50;;;17.49;76.72
30730;BME280;17476;48.458;7.928;2022-09-09T04:21:41;99581.03;;;17.46;76.54
30730;BME280;17476;48.458;7.928;2022-09-09T04:24:08;99577.00;;;17.43;76.36
30730;BME280;17476;48.458;7.928;2022-09-09T04:26:35;99580.72;;;17.36;77.07
30730;BME280;17476;48.458;7.928;2022-09-09T04:29:03;99580.78;;;17.29;76.95
30730;BME280;17476;48.458;7.928;2022-09-09T04:31:30;99589.16;;;17.19;77.52
30730;BME280;17476;48.458;7.928;2022-09-09T04:33:56;99587.78;;;17.17;78.19
30730;BME280;17476;48.458;7.928;2022-09-09T04:36:22;99583.53;;;17.16;79.02
30730;BME280;17476;48.458;7.928;2022-09-09T04:38:48;99582.06;;;17.20;78.33
30730;BME280;17476;48.458;7.928;2022-09-09T04:41:17;99591.22;;;17.17;77.28
30730;BME280;17476;48.458;7.928;2022-09-09T04:43:43;99579.69;;;17.12;77.93
30730;BME280;17476;48.458;7.928;2022-09-09T04:46:09;99583.97;;;17.06;78.65
30730;BME280;17476;48.458;7.928;2022-09-09T04:48:35;99591.16;;;16.99;78.34
30730;BME280;17476;48.458;7.928;2022-09-09T04:51:05;99579.78;;;16.99;79.22
30730;BME280;17476;48.458;7.928;2022-09-09T04:53:32;99581.56;;;17.05;78.58
30730;BME280;17476;48.458;7.928;2022-09-09T04:56:14;99587.88;;;17.04;78.82
30730;BME280;17476;48.458;7.928;2022-09-09T04:58:41;99583.41;;;17.04;78.36
30730;BME280;17476;48.458;7.928;2022-09-09T05:01:19;99588.31;;;17.01;78.64
30730;BME280;17476;48.458;7.928;2022-09-09T05:03:46;99597.69;;;16.97;78.91
30730;BME280;17476;48.458;7.928;2022-09-09T05:06:18;99589.75;;;16.97;79.25
30730;BME280;17476;48.458;7.928;2022-09-09T05:08:45;99600.50;;;17.02;79.76
30730;BME280;17476;48.458;7.928;2022-09-09T05:11:26;99595.75;;;17.10;78.93
30730;BME280;17476;48.458;7.928;2022-09-09T05:13:53;99598.78;;;17.14;79.80
30730;BME280;17476;48.458;7.928;2022-09-09T05:16:20;99601.16;;;17.22;79.53
30730;BME280;17476;48.458;7.928;2022-09-09T05:18:47;99591.41;;;17.23;78.57
30730;BME280;17476;48.458;7.928;2022-09-09T05:21:15;99602.72;;;17.30;78.38
30730;BME280;17476;48.458;7.928;2022-09-09T05:23:42;99602.72;;;17.30;78.03
30730;BME280;17476;48.458;7.928;2022-09-09T05:26:13;99600.63;;;17.38;77.67
30730;BME280;17476;48.458;7.928;2022-09-09T05:28:39;99600.03;;;17.36;77.43
30730;BME280;17476;48.458;7.928;2022-09-09T05:31:08;99597.22;;;17.31;77.75
30730;BME280;17476;48.458;7.928;2022-09-09T05:33:35;99610.44;;;17.31;78.27
30730;BME280;17476;48.458;7.928;2022-09-09T05:36:08;99591.66;;;17.39;77.85
30730;BME280;17476;48.458;7.928;2022-09-09T05:38:35;99589.56;;;17.48;77.59
30730;BME280;17476;48.458;7.928;2022-09-09T05:41:03;99602.13;;;17.53;77.05
30730;BME280;17476;48.458;7.928;2022-09-09T05:43:29;99597.81;;;17.58;76.73
30730;BME280;17476;48.458;7.928;2022-09-09T05:46:10;99607.56;;;17.58;76.98
30730;BME280;17476;48.458;7.928;2022-09-09T05:48:39;99611.19;;;17.63;76.69
30730;BME280;17476;48.458;7.928;2022-09-09T05:51:10;99603.84;;;17.65;76.42
30730;BME280;17476;48.458;7.928;2022-09-09T05:53:38;99613.38;;;17.66;76.54
30730;BME280;17476;48.458;7.928;2022-09-09T05:56:11;99611.19;;;17.63;76.70
30730;BME280;17476;48.458;7.928;2022-09-09T05:58:38;99611.56;;;17.67;76.36
30730;BME280;17476;48.458;7.928;2022-09-09T06:03:48;99613.38;;;17.66;76.55
30730;BME280;17476;48.458;7.928;2022-09-09T06:06:21;99611.31;;;17.75;76.29
30730;BME280;17476;48.458;7.928;2022-09-09T06:08:50;99617.56;;;17.81;77.62
30730;BME280;17476;48.458;7.928;2022-09-09T06:11:22;99614.50;;;17.84;77.20
30730;BME280;17476;48.458;7.928;2022-09-09T06:13:50;99624.78;;;17.92;77.21
30730;BME280;17476;48.458;7.928;2022-09-09T06:16:23;99627.81;;;17.95;77.58
30730;BME280;17476;48.458;7.928;2022-09-09T06:18:49;99623.09;;;17.97;77.62
30730;BME280;17476;48.458;7.928;2022-09-09T06:21:26;99608.31;;;18.08;76.67
30730;BME280;17476;48.458;7.928;2022-09-09T06:23:52;99613.34;;;18.16;76.56
30730;BME280;17476;48.458;7.928;2022-09-09T06:26:31;99611.78;;;18.27;76.93
30730;BME280;17476;48.458;7.928;2022-09-09T06:28:58;99610.22;;;18.38;76.63
30730;BME280;17476;48.458;7.928;2022-09-09T06:31:27;99609.47;;;18.49;76.57
30730;BME280;17476;48.458;7.928;2022-09-09T06:33:56;99608.50;;;18.62;75.78
30730;BME280;17476;48.458;7.928;2022-09-09T06:36:31;99604.31;;;18.72;75.42
30730;BME280;17476;48.458;7.928;2022-09-09T06:38:58;99607.44;;;18.81;74.35
30730;BME280;17476;48.458;7.928;2022-09-09T06:41:27;99613.47;;;18.88;74.60
30730;BME280;17476;48.458;7.928;2022-09-09T06:43:54;99619.38;;;19.02;74.61
30730;BME280;17476;48.458;7.928;2022-09-09T06:46:23;99609.38;;;19.16;74.23
30730;BME280;17476;48.458;7.928;2022-09-09T06:48:54;99613.44;;;19.30;73.66
30730;BME280;17476;48.458;7.928;2022-09-09T06:51:35;99616.34;;;19.40;73.23
30730;BME280;17476;48.458;7.928;2022-09-09T06:54:02;99619.59;;;19.54;72.25
30730;BME280;17476;48.458;7.928;2022-09-09T06:56:40;99621.59;;;19.58;71.78
30730;BME280;17476;48.458;7.928;2022-09-09T06:59:08;99619.50;;;19.60;71.93
30730;BME280;17476;48.458;7.928;2022-09-09T07:01:40;99618.94;;;19.58;71.40
30730;BME280;17476;48.458;7.928;2022-09-09T07:04:07;99620.31;;;19.61;71.77
30730;BME280;17476;48.458;7.928;2022-09-09T07:06:43;99621.94;;;19.62;71.43
30730;BME280;17476;48.458;7.928;2022-09-09T07:09:14;99620.44;;;19.66;71.82
30730;BME280;17476;48.458;7.928;2022-09-09T07:11:47;99621.69;;;19.75;71.75
30730;BME280;17476;48.458;7.928;2022-09-09T07:14:14;99631.16;;;19.83;71.75
30730;BME280;17476;48.458;7.928;2022-09-09T07:16:42;99632.06;;;19.88;70.59
30730;BME280;17476;48.458;7.928;2022-09-09T07:19:08;99624.47;;;19.80;70.54
30730;BME280;17476;48.458;7.928;2022-09-09T07:21:35;99635.91;;;19.81;70.31
30730;BME280;17476;48.458;7.928;2022-09-09T07:24:01;99635.88;;;19.57;72.13
30730;BME280;17476;48.458;7.928;2022-09-09T07:26:30;99635.03;;;19.57;71.72
30730;BME280;17476;48.458;7.928;2022-09-09T07:28:57;99634.84;;;19.58;72.03
30730;BME280;17476;48.458;7.928;2022-09-09T07:31:30;99640.03;;;19.77;72.50
30730;BME280;17476;48.458;7.928;2022-09-09T07:33:57;99634.81;;;20.17;71.96
30730;BME280;17476;48.458;7.928;2022-09-09T07:36:27;99630.97;;;20.36;70.80
30730;BME280;17476;48.458;7.928;2022-09-09T07:39:06;99632.69;;;20.31;69.88
30730;BME280;17476;48.458;7.928;2022-09-09T07:41:37;99630.84;;;20.55;70.38
30730;BME280;17476;48.458;7.928;2022-09-09T07:44:06;99633.41;;;21.07;71.54
30730;BME280;17476;48.458;7.928;2022-09-09T07:46:32;99636.81;;;21.69;69.19
30730;BME280;17476;48.458;7.928;2022-09-09T07:48:59;99640.09;;;22.10;64.85
30730;BME280;17476;48.458;7.928;2022-09-09T07:51:29;99634.06;;;22.64;65.67
30730;BME280;17476;48.458;7.928;2022-09-09T07:54:01;99635.56;;;23.35;62.88
30730;BME280;17476;48.458;7.928;2022-09-09T07:56:29;99639.00;;;24.10;62.78
30730;BME280;17476;48.458;7.928;2022-09-09T07:58:57;99635.28;;;24.74;58.76
30730;BME280;17476;48.458;7.928;2022-09-09T08:01:51;99633.75;;;25.24;54.92
30730;BME280;17476;48.458;7.928;2022-09-09T08:04:22;99644.97;;;25.67;54.46
30730;BME280;17476;48.458;7.928;2022-09-09T08:06:58;99654.06;;;25.91;54.17
30730;BME280;17476;48.458;7.928;2022-09-09T08:09:25;99643.53;;;26.20;53.11
30730;BME280;17476;48.458;7.928;2022-09-09T08:11:55;99647.72;;;26.57;53.41
30730;BME280;17476;48.458;7.928;2022-09-09T08:14:22;99645.22;;;26.71;48.86
30730;BME280;17476;48.458;7.928;2022-09-09T08:16:50;99643.25;;;26.81;50.91
30730;BME280;17476;48.458;7.928;2022-09-09T08:19:16;99648.69;;;26.76;49.21
30730;BME280;17476;48.458;7.928;2022-09-09T08:21:43;99645.94;;;26.81;49.63
30730;BME280;17476;48.458;7.928;2022-09-09T08:24:11;99645.13;;;26.86;49.21
30730;BME280;17476;48.458;7.928;2022-09-09T08:26:44;99639.03;;;27.14;48.26
30730;BME280;17476;48.458;7.928;2022-09-09T08:29:13;99640.59;;;27.55;46.61
30730;BME280;17476;48.458;7.928;2022-09-09T08:31:46;99635.75;;;27.86;47.57
30730;BME280;17476;48.458;7.928;2022-09-09T08:34:13;99644.56;;;27.91;46.06
30730;BME280;17476;48.458;7.928;2022-09-09T08:36:44;99642.44;;;27.88;45.58
30730;BME280;17476;48.458;7.928;2022-09-09T08:39:13;99643.22;;;27.60;45.01
30730;BME280;17476;48.458;7.928;2022-09-09T08:53:01;99626.63;;;26.25;48.61
30730;BME280;17476;48.458;7.928;2022-09-09T08:55:51;99634.09;;;26.38;48.64
30730;BME280;17476;48.458;7.928;2022-09-09T08:58:26;99631.38;;;26.48;49.93
30730;BME280;17476;48.458;7.928;2022-09-09T09:04:11;99626.44;;;26.01;49.54
30730;BME280;17476;48.458;7.928;2022-09-09T09:12:48;99624.38;;;25.57;50.98
30730;BME280;17476;48.458;7.928;2022-09-09T09:15:23;99636.97;;;25.31;51.56
30730;BME280;17476;48.458;7.928;2022-09-09T09:17:50;99633.50;;;25.10;52.11
30730;BME280;17476;48.458;7.928;2022-09-09T09:20:27;99630.50;;;24.96;53.62
30730;BME280;17476;48.458;7.928;2022-09-09T09:23:00;99640.94;;;24.93;53.72
30730;BME280;17476;48.458;7.928;2022-09-09T09:25:36;99636.34;;;24.73;54.89
30730;BME280;17476;48.458;7.928;2022-09-09T09:28:17;99648.53;;;24.43;54.57
30730;BME280;17476;48.458;7.928;2022-09-09T09:31:11;99643.06;;;24.13;55.76
30730;BME280;17476;48.458;7.928;2022-09-09T09:33:47;99641.84;;;23.51;56.81
30730;BME280;17476;48.458;7.928;2022-09-09T09:36:14;99653.66;;;23.28;55.91
30730;BME280;17476;48.458;7.928;2022-09-09T09:39:00;99649.91;;;23.29;55.72
30730;BME280;17476;48.458;7.928;2022-09-09T09:43:59;99685.56;;;22.69;58.92
30730;BME280;17476;48.458;7.928;2022-09-09T09:46:27;99689.63;;;21.44;64.69
30730;BME280;17476;48.458;7.928;2022-09-09T09:49:05;99691.34;;;20.93;68.46
30730;BME280;17476;48.458;7.928;2022-09-09T09:51:34;99703.59;;;20.30;70.56
30730;BME280;17476;48.458;7.928;2022-09-09T09:56:45;99700.06;;;20.01;68.46
30730;BME280;17476;48.458;7.928;2022-09-09T09:59:36;99692.69;;;19.92;67.90
30730;BME280;17476;48.458;7.928;2022-09-09T10:02:36;99698.28;;;19.60;66.90
30730;BME280;17476;48.458;7.928;2022-09-09T10:07:46;99694.03;;;20.17;69.04
30730;BME280;17476;48.458;7.928;2022-09-09T10:10:26;99705.25;;;20.20;66.21
30730;BME280;17476;48.458;7.928;2022-09-09T10:13:09;99703.94;;;20.57;64.72
30730;BME280;17476;48.458;7.928;2022-09-09T10:19:05;99688.91;;;21.48;64.48
30730;BME280;17476;48.458;7.928;2022-09-09T10:27:56;99672.03;;;23.89;56.58
30730;BME280;17476;48.458;7.928;2022-09-09T10:33:15;99666.50;;;24.58;51.45
30730;BME280;17476;48.458;7.928;2022-09-09T10:38:45;99653.72;;;24.75;53.33
30730;BME280;17476;48.458;7.928;2022-09-09T10:41:42;99646.53;;;26.08;50.32
30730;BME280;17476;48.458;7.928;2022-09-09T10:55:19;99646.91;;;24.37;51.19
30730;BME280;17476;48.458;7.928;2022-09-09T10:57:53;99646.50;;;24.08;50.72
30730;BME280;17476;48.458;7.928;2022-09-09T11:03:03;99647.31;;;23.66;54.52
30730;BME280;17476;48.458;7.928;2022-09-09T11:06:06;99646.25;;;23.67;53.22
30730;BME280;17476;48.458;7.928;2022-09-09T11:08:38;99656.44;;;23.43;53.00
30730;BME280;17476;48.458;7.928;2022-09-09T11:14:03;99645.84;;;23.86;54.83
30730;BME280;17476;48.458;7.928;2022-09-09T11:16:56;99628.31;;;24.78;53.08
30730;BME280;17476;48.458;7.928;2022-09-09T11:19:36;99626.78;;;25.58;50.45
30730;BME280;17476;48.458;7.928;2022-09-09T11:25:03;99633.78;;;27.33;44.42
30730;BME280;17476;48.458;7.928;2022-09-09T11:37:23;99621.63;;;27.12;43.65
30730;BME280;17476;48.458;7.928;2022-09-09T11:42:48;99635.88;;;25.78;46.31
30730;BME280;17476;48.458;7.928;2022-09-09T11:45:25;99623.63;;;26.36;46.21
30730;BME280;17476;48.458;7.928;2022-09-09T11:47:55;99634.63;;;26.45;45.80
30730;BME280;17476;48.458;7.928;2022-09-09T11:52:48;99618.91;;;27.17;44.68
30730;BME280;17476;48.458;7.928;2022-09-09T11:55:30;99623.09;;;26.34;46.19
30730;BME280;17476;48.458;7.928;2022-09-09T12:00:47;99621.56;;;26.23;48.98
30730;BME280;17476;48.458;7.928;2022-09-09T12:03:41;99623.72;;;26.76;46.93
30730;BME280;17476;48.458;7.928;2022-09-09T12:06:24;99623.78;;;27.10;46.40
30730;BME280;17476;48.458;7.928;2022-09-09T12:09:09;99612.00;;;26.61;48.37
30730;BME280;17476;48.458;7.928;2022-09-09T12:11:36;99617.88;;;27.08;46.30
30730;BME280;17476;48.458;7.928;2022-09-09T12:14:02;99604.69;;;27.74;45.23
30730;BME280;17476;48.458;7.928;2022-09-09T12:16:37;99616.75;;;27.77;42.94
30730;BME280;17476;48.458;7.928;2022-09-09T12:19:19;99620.66;;;26.48;44.61
30730;BME280;17476;48.458;7.928;2022-09-09T12:22:08;99623.03;;;26.55;46.77
30730;BME280;17476;48.458;7.928;2022-09-09T12:24:49;99610.75;;;26.88;44.62
30730;BME280;17476;48.458;7.928;2022-09-09T12:27:27;99611.09;;;27.15;43.46
30730;BME280;17476;48.458;7.928;2022-09-09T12:30:16;99610.13;;;27.93;41.46
30730;BME280;17476;48.458;7.928;2022-09-09T12:32:43;99610.63;;;27.95;40.36
30730;BME280;17476;48.458;7.928;2022-09-09T12:35:26;99602.47;;;27.82;39.84
30730;BME280;17476;48.458;7.928;2022-09-09T12:38:00;99601.28;;;28.36;41.13
30730;BME280;17476;48.458;7.928;2022-09-09T12:40:30;99589.38;;;28.42;41.06
30730;BME280;17476;48.458;7.928;2022-09-09T12:42:58;99597.22;;;28.57;40.73
30730;BME280;17476;48.458;7.928;2022-09-09T12:45:30;99584.59;;;27.91;38.86
30730;BME280;17476;48.458;7.928;2022-09-09T12:48:07;99583.06;;;28.33;39.19
30730;BME280;17476;48.458;7.928;2022-09-09T12:50:43;99584.00;;;27.46;39.76
30730;BME280;17476;48.458;7.928;2022-09-09T12:56:08;99585.28;;;27.25;39.16
30730;BME280;17476;48.458;7.928;2022-09-09T12:58:38;99588.06;;;27.43;36.33
30730;BME280;17476;48.458;7.928;2022-09-09T13:01:06;99595.91;;;27.06;37.88
30730;BME280;17476;48.458;7.928;2022-09-09T13:03:43;99584.88;;;27.02;36.96
30730;BME280;17476;48.458;7.928;2022-09-09T13:06:21;99583.28;;;27.06;37.93
30730;BME280;17476;48.458;7.928;2022-09-09T13:08:58;99569.63;;;26.98;36.58
30730;BME280;17476;48.458;7.928;2022-09-09T13:11:52;99565.88;;;26.05;39.79
30730;BME280;17476;48.458;7.928;2022-09-09T13:14:32;99569.56;;;26.14;39.11
30730;BME280;17476;48.458;7.928;2022-09-09T13:17:03;99566.16;;;25.98;38.74
30730;BME280;17476;48.458;7.928;2022-09-09T13:19:37;99563.50;;;25.93;38.61
30730;BME280;17476;48.458;7.928;2022-09-09T13:22:32;99563.47;;;25.98;41.02
30730;BME280;17476;48.458;7.928;2022-09-09T13:25:05;99556.06;;;25.75;39.10
30730;BME280;17476;48.458;7.928;2022-09-09T13:27:35;99553.53;;;26.04;40.40
30730;BME280;17476;48.458;7.928;2022-09-09T13:30:28;99553.44;;;26.74;41.20
30730;BME280;17476;48.458;7.928;2022-09-09T13:36:05;99541.53;;;26.51;36.92
30730;BME280;17476;48.458;7.928;2022-09-09T13:41:21;99538.75;;;26.95;37.09
30730;BME280;17476;48.458;7.928;2022-09-09T13:43:50;99545.47;;;26.98;38.27
30730;BME280;17476;48.458;7.928;2022-09-09T13:46:36;99545.47;;;26.63;37.72
30730;BME280;17476;48.458;7.928;2022-09-09T13:49:20;99534.59;;;26.84;38.97
30730;BME280;17476;48.458;7.928;2022-09-09T13:51:51;99538.34;;;26.38;39.77
30730;BME280;17476;48.458;7.928;2022-09-09T13:54:20;99533.97;;;26.03;39.52
30730;BME280;17476;48.458;7.928;2022-09-09T13:56:47;99536.19;;;26.46;39.94
30730;BME280;17476;48.458;7.928;2022-09-09T13:59:15;99529.75;;;27.15;37.71
30730;BME280;17476;48.458;7.928;2022-09-09T14:01:42;99532.75;;;27.13;37.31
30730;BME280;17476;48.458;7.928;2022-09-09T14:04:09;99532.50;;;27.10;40.02
30730;BME280;17476;48.458;7.928;2022-09-09T14:06:36;99540.16;;;26.87;36.73
30730;BME280;17476;48.458;7.928;2022-09-09T14:09:07;99533.78;;;26.44;37.83
30730;BME280;17476;48.458;7.928;2022-09-09T14:11:34;99536.69;;;25.98;39.92
30730;BME280;17476;48.458;7.928;2022-09-09T14:13:59;99537.53;;;25.89;38.99
30730;BME280;17476;48.458;7.928;2022-09-09T14:16:26;99543.22;;;25.46;40.78
30730;BME280;17476;48.458;7.928;2022-09-09T14:18:53;99538.16;;;25.45;40.82
30730;BME280;17476;48.458;7.928;2022-09-09T14:21:22;99531.19;;;25.44;40.95
30730;BME280;17476;48.458;7.928;2022-09-09T14:23:48;99528.53;;;25.49;40.23
30730;BME280;17476;48.458;7.928;2022-09-09T14:26:14;99531.47;;;25.42;40.44
30730;BME280;17476;48.458;7.928;2022-09-09T14:28:40;99525.38;;;25.21;41.90
30730;BME280;17476;48.458;7.928;2022-09-09T14:31:07;99534.44;;;24.85;41.11
30730;BME280;17476;48.458;7.928;2022-09-09T14:33:33;99534.19;;;24.81;41.61
30730;BME280;17476;48.458;7.928;2022-09-09T14:36:02;99527.75;;;24.77;42.97
30730;BME280;17476;48.458;7.928;2022-09-09T14:38:34;99549.09;;;24.51;42.66
30730;BME280;17476;48.458;7.928;2022-09-09T14:41:16;99552.31;;;24.59;41.46
30730;BME280;17476;48.458;7.928;2022-09-09T14:43:43;99564.78;;;24.22;41.24
30730;BME280;17476;48.458;7.928;2022-09-09T14:46:13;99589.72;;;24.38;42.85
30730;BME280;17476;48.458;7.928;2022-09-09T14:48:39;99599.16;;;24.04;48.07
30730;BME280;17476;48.458;7.928;2022-09-09T14:51:24;99593.25;;;23.96;50.25
30730;BME280;17476;48.458;7.928;2022-09-09T14:53:55;99589.72;;;23.81;50.43
30730;BME280;17476;48.458;7.928;2022-09-09T14:56:27;99580.56;;;23.66;52.51
30730;BME280;17476;48.458;7.928;2022-09-09T14:58:54;99588.97;;;23.95;51.46
30730;BME280;17476;48.458;7.928;2022-09-09T15:01:21;99590.84;;;23.95;52.05
30730;BME280;17476;48.458;7.928;2022-09-09T15:03:59;99587.41;;;24.05;50.79
30730;BME280;17476;48.458;7.928;2022-09-09T15:06:29;99590.06;;;23.94;50.55
30730;BME280;17476;48.458;7.928;2022-09-09T15:08:56;99587.88;;;23.86;50.43
30730;BME280;17476;48.458;7.928;2022-09-09T15:11:33;99592.06;;;23.72;50.14
30730;BME280;17476;48.458;7.928;2022-09-09T15:14:04;99588.03;;;23.64;50.89
30730;BME280;17476;48.458;7.928;2022-09-09T15:16:30;99582.97;;;23.68;50.51
30730;BME280;17476;48.458;7.928;2022-09-09T15:19:00;99579.94;;;23.22;51.10
30730;BME280;17476;48.458;7.928;2022-09-09T15:21:29;99580.03;;;23.32;51.20
30730;BME280;17476;48.458;7.928;2022-09-09T15:23:57;99577.78;;;23.56;51.12
30730;BME280;17476;48.458;7.928;2022-09-09T15:26:24;99583.78;;;23.36;49.20
30730;BME280;17476;48.458;7.928;2022-09-09T15:28:50;99575.56;;;23.43;49.88
30730;BME280;17476;48.458;7.928;2022-09-09T15:31:18;99575.72;;;23.63;49.36
30730;BME280;17476;48.458;7.928;2022-09-09T15:33:56;99581.19;;;23.47;49.45
30730;BME280;17476;48.458;7.928;2022-09-09T15:36:37;99584.94;;;23.46;49.21
30730;BME280;17476;48.458;7.928;2022-09-09T15:39:06;99584.56;;;23.69;48.80
30730;BME280;17476;48.458;7.928;2022-09-09T15:41:33;99586.53;;;23.47;48.62
30730;BME280;17476;48.458;7.928;2022-09-09T15:44:00;99598.34;;;23.56;47.24
30730;BME280;17476;48.458;7.928;2022-09-09T15:46:37;99595.66;;;23.56;48.12
30730;BME280;17476;48.458;7.928;2022-09-09T15:49:24;99590.72;;;23.32;46.74
30730;BME280;17476;48.458;7.928;2022-09-09T15:51:58;99583.13;;;23.51;48.17
30730;BME280;17476;48.458;7.928;2022-09-09T15:54:33;99590.31;;;23.56;47.04
30730;BME280;17476;48.458;7.928;2022-09-09T15:57:03;99589.75;;;23.49;48.54
30730;BME280;17476;48.458;7.928;2022-09-09T15:59:31;99600.44;;;23.49;46.95
30730;BME280;17476;48.458;7.928;2022-09-09T16:01:58;99600.16;;;23.13;46.71